sensor_id;sensor_type;location;lat;lon;timestamp;temperature;humidity
3734;HTU21D;1882;52.256;8.874;2024-02-21T00:00:36;8.80;99.90
3734;HTU21D;1882;52.256;8.874;2024-02-21T00:03:05;8.80;99.90
3734;HTU21D;1882;52.256;8.874;2024-02-21T00:05:32;8.80;99.90
3734;HTU21D;1882;52.256;8.874;2024-02-21T00:07:59;8.80;99.90
3734;HTU21D;1882;52.256;8.874;2024-02-21T00:10:26;8.80;99.90
3734;HTU21D;1882;52.256;8.874;2024-02-21T00:12:53;8.90;99.90
3734;HTU21D;1882;52.256;8.874;2024-02-21T00:15:20;8.90;99.90
3734;HTU21D;1882;52.256;8.874;2024-02-21T00:17:48;8.90;99.90
3734;HTU21D;1882;52.256;8.874;2024-02-21T00:20:15;8.90;99.90
3734;HTU21D;1882;52.256;8.874;2024-02-21T00:22:42;8.90;99.90
3734;HTU21D;1882;52.256;8.874;2024-02-21T00:25:10;8.80;99.90
3734;HTU21D;1882;52.256;8.874;2024-02-21T00:27:37;8.80;99.90
3734;HTU21D;1882;52.256;8.874;2024-02-21T00:30:04;8.90;99.90
3734;HTU21D;1882;52.256;8.874;2024-02-21T00:32:32;8.90;99.90
3734;HTU21D;1882;52.256;8.874;2024-02-21T00:35:00;8.80;99.90
3734;HTU21D;1882;52.256;8.874;2024-02-21T00:37:28;8.80;99.90
3734;HTU21D;1882;52.256;8.874;2024-02-21T00:39:55;8.90;99.90
3734;HTU21D;1882;52.256;8.874;2024-02-21T00:42:21;8.90;99.90
3734;HTU21D;1882;52.256;8.874;2024-02-21T00:44:48;8.90;99.90
3734;HTU21D;1882;52.256;8.874;2024-02-21T00:47:15;8.90;99.90
3734;HTU21D;1882;52.256;8.874;2024-02-21T00:49:42;8.90;99.90
3734;HTU21D;1882;52.256;8.874;2024-02-21T00:52:09;8.90;99.90
3734;HTU21D;1882;52.256;8.874;2024-02-21T00:54:36;8.90;99.90
3734;HTU21D;1882;52.256;8.874;2024-02-21T00:57:16;8.90;99.90
3734;HTU21D;1882;52.256;8.874;2024-02-21T00:59:43;9.00;99.90
3734;HTU21D;1882;52.256;8.874;2024-02-21T01:02:10;9.00;99.90
3734;HTU21D;1882;52.256;8.874;2024-02-21T01:04:37;8.90;99.90
3734;HTU21D;1882;52.256;8.874;2024-02-21T01:07:04;9.00;99.90
3734;HTU21D;1882;52.256;8.874;2024-02-21T01:09:31;8.90;99.90
3734;HTU21D;1882;52.256;8.874;2024-02-21T01:11:58;9.00;99.90
3734;HTU21D;1882;52.256;8.874;2024-02-21T01:14:24;9.00;99.90
3734;HTU21D;1882;52.256;8.874;2024-02-21T01:16:51;9.00;99.90
3734;HTU21D;1882;52.256;8.874;2024-02-21T01:19:18;9.00;99.90
3734;HTU21D;1882;52.256;8.874;2024-02-21T01:21:45;9.00;99.90
3734;HTU21D;1882;52.256;8.874;2024-02-21T01:24:12;9.00;99.90
3734;HTU21D;1882;52.256;8.874;2024-02-21T01:26:40;9.00;99.90
3734;HTU21D;1882;52.256;8.874;2024-02-21T01:29:07;9.10;99.90
3734;HTU21D;1882;52.256;8.874;2024-02-21T01:31:33;9.00;99.90
3734;HTU21D;1882;52.256;8.874;2024-02-21T01:34:01;9.10;99.90
3734;HTU21D;1882;52.256;8.874;2024-02-21T01:36:27;9.10;99.90
3734;HTU21D;1882;52.256;8.874;2024-02-21T01:38:54;9.10;99.90
3734;HTU21D;1882;52.256;8.874;2024-02-21T01:41:21;9.10;99.90
3734;HTU21D;1882;52.256;8.874;2024-02-21T01:43:48;9.10;99.90
3734;HTU21D;1882;52.256;8.874;2024-02-21T01:46:15;9.10;99.90
3734;HTU21D;1882;52.256;8.874;2024-02-21T01:48:42;9.10;99.90
3734;HTU21D;1882;52.256;8.874;2024-02-21T01:51:10;9.10;99.90
3734;HTU21D;1882;52.256;8.874;2024-02-21T01:53:38;9.10;99.90
3734;HTU21D;1882;52.256;8.874;2024-02-21T01:56:08;9.10;99.90
3734;HTU21D;1882;52.256;8.874;2024-02-21T01:58:37;9.10;99.90
3734;HTU21D;1882;52.256;8.874;2024-02-21T02:01:04;9.10;99.90
3734;HTU21D;1882;52.256;8.874;2024-02-21T02:03:31;9.10;99.90
3734;HTU21D;1882;52.256;8.874;2024-02-21T02:05:59;9.10;99.90
3734;HTU21D;1882;52.256;8.874;2024-02-21T02:08:26;9.10;99.90
3734;HTU21D;1882;52.256;8.874;2024-02-21T02:10:53;9.10;99.90
3734;HTU21D;1882;52.256;8.874;2024-02-21T02:13:20;9.10;99.90
3734;HTU21D;1882;52.256;8.874;2024-02-21T02:15:49;9.10;99.90
3734;HTU21D;1882;52.256;8.874;2024-02-21T02:18:17;9.10;99.90
3734;HTU21D;1882;52.256;8.874;2024-02-21T02:20:45;9.10;99.90
3734;HTU21D;1882;52.256;8.874;2024-02-21T02:25:45;9.10;99.90
3734;HTU21D;1882;52.256;8.874;2024-02-21T02:28:16;9.10;99.90
3734;HTU21D;1882;52.256;8.874;2024-02-21T02:30:43;9.10;99.90
3734;HTU21D;1882;52.256;8.874;2024-02-21T02:33:10;9.10;99.90
3734;HTU21D;1882;52.256;8.874;2024-02-21T02:35:37;9.00;99.90
3734;HTU21D;1882;52.256;8.874;2024-02-21T02:38:04;9.00;99.90
3734;HTU21D;1882;52.256;8.874;2024-02-21T02:40:34;9.10;99.90
3734;HTU21D;1882;52.256;8.874;2024-02-21T02:43:01;9.00;99.90
3734;HTU21D;1882;52.256;8.874;2024-02-21T02:45:28;9.00;99.90
3734;HTU21D;1882;52.256;8.874;2024-02-21T02:47:56;9.00;99.90
3734;HTU21D;1882;52.256;8.874;2024-02-21T02:50:24;9.00;99.90
3734;HTU21D;1882;52.256;8.874;2024-02-21T02:52:52;9.00;99.90
3734;HTU21D;1882;52.256;8.874;2024-02-21T02:55:19;9.00;99.90
3734;HTU21D;1882;52.256;8.874;2024-02-21T02:57:46;9.10;99.90
3734;HTU21D;1882;52.256;8.874;2024-02-21T03:00:14;9.00;99.90
3734;HTU21D;1882;52.256;8.874;2024-02-21T03:02:44;9.00;99.90
3734;HTU21D;1882;52.256;8.874;2024-02-21T03:07:42;9.00;99.90
3734;HTU21D;1882;52.256;8.874;2024-02-21T03:10:10;9.10;99.90
3734;HTU21D;1882;52.256;8.874;2024-02-21T03:12:37;9.00;99.90
3734;HTU21D;1882;52.256;8.874;2024-02-21T03:15:05;9.00;99.90
3734;HTU21D;1882;52.256;8.874;2024-02-21T03:17:32;9.00;99.90
3734;HTU21D;1882;52.256;8.874;2024-02-21T03:20:05;9.10;99.90
3734;HTU21D;1882;52.256;8.874;2024-02-21T03:22:36;9.00;99.90
3734;HTU21D;1882;52.256;8.874;2024-02-21T03:25:04;9.00;99.90
3734;HTU21D;1882;52.256;8.874;2024-02-21T03:27:31;9.00;99.90
3734;HTU21D;1882;52.256;8.874;2024-02-21T03:29:57;9.00;99.90
3734;HTU21D;1882;52.256;8.874;2024-02-21T03:32:25;9.00;99.90
3734;HTU21D;1882;52.256;8.874;2024-02-21T03:34:52;8.90;99.90
3734;HTU21D;1882;52.256;8.874;2024-02-21T03:37:19;8.90;99.90
3734;HTU21D;1882;52.256;8.874;2024-02-21T03:39:46;8.90;99.90
3734;HTU21D;1882;52.256;8.874;2024-02-21T03:42:13;8.90;99.90
3734;HTU21D;1882;52.256;8.874;2024-02-21T03:44:40;8.90;99.90
3734;HTU21D;1882;52.256;8.874;2024-02-21T03:47:07;8.90;99.90
3734;HTU21D;1882;52.256;8.874;2024-02-21T03:49:37;8.90;99.90
3734;HTU21D;1882;52.256;8.874;2024-02-21T03:52:05;8.90;99.90
3734;HTU21D;1882;52.256;8.874;2024-02-21T03:54:31;8.90;99.90
3734;HTU21D;1882;52.256;8.874;2024-02-21T03:56:58;8.90;99.90
3734;HTU21D;1882;52.256;8.874;2024-02-21T03:59:25;9.00;99.90
3734;HTU21D;1882;52.256;8.874;2024-02-21T04:01:52;8.90;99.90
3734;HTU21D;1882;52.256;8.874;2024-02-21T04:04:20;8.90;99.90
3734;HTU21D;1882;52.256;8.874;2024-02-21T04:06:49;9.00;99.90
3734;HTU21D;1882;52.256;8.874;2024-02-21T04:09:16;9.00;99.90
3734;HTU21D;1882;52.256;8.874;2024-02-21T04:11:43;9.00;99.90
3734;HTU21D;1882;52.256;8.874;2024-02-21T04:14:10;9.00;99.90
3734;HTU21D;1882;52.256;8.874;2024-02-21T04:16:38;9.00;99.90
3734;HTU21D;1882;52.256;8.874;2024-02-21T04:19:06;9.10;99.90
3734;HTU21D;1882;52.256;8.874;2024-02-21T04:21:33;9.00;99.90
3734;HTU21D;1882;52.256;8.874;2024-02-21T04:24:00;9.00;99.90
3734;HTU21D;1882;52.256;8.874;2024-02-21T04:26:28;9.00;99.90
3734;HTU21D;1882;52.256;8.874;2024-02-21T04:28:55;8.90;99.90
3734;HTU21D;1882;52.256;8.874;2024-02-21T04:31:22;9.00;99.90
3734;HTU21D;1882;52.256;8.874;2024-02-21T04:33:49;9.00;99.90
3734;HTU21D;1882;52.256;8.874;2024-02-21T04:36:16;8.90;99.90
3734;HTU21D;1882;52.256;8.874;2024-02-21T04:38:43;8.90;99.90
3734;HTU21D;1882;52.256;8.874;2024-02-21T04:41:10;8.90;99.90
3734;HTU21D;1882;52.256;8.874;2024-02-21T04:43:37;8.90;99.90
3734;HTU21D;1882;52.256;8.874;2024-02-21T04:46:04;8.90;99.90
3734;HTU21D;1882;52.256;8.874;2024-02-21T04:48:31;8.90;99.90
3734;HTU21D;1882;52.256;8.874;2024-02-21T04:50:58;8.90;99.90
3734;HTU21D;1882;52.256;8.874;2024-02-21T04:53:25;8.90;99.90
3734;HTU21D;1882;52.256;8.874;2024-02-21T04:55:52;8.80;99.90
3734;HTU21D;1882;52.256;8.874;2024-02-21T04:58:19;8.80;99.90
3734;HTU21D;1882;52.256;8.874;2024-02-21T05:00:46;8.90;99.90
3734;HTU21D;1882;52.256;8.874;2024-02-21T05:03:13;8.80;99.90
3734;HTU21D;1882;52.256;8.874;2024-02-21T05:05:39;8.80;99.90
3734;HTU21D;1882;52.256;8.874;2024-02-21T05:08:06;8.80;99.90
3734;HTU21D;1882;52.256;8.874;2024-02-21T05:10:33;8.80;99.90
3734;HTU21D;1882;52.256;8.874;2024-02-21T05:13:00;8.80;99.90
3734;HTU21D;1882;52.256;8.874;2024-02-21T05:15:27;8.80;99.90
3734;HTU21D;1882;52.256;8.874;2024-02-21T05:17:54;8.80;99.90
3734;HTU21D;1882;52.256;8.874;2024-02-21T05:20:21;8.80;99.90
3734;HTU21D;1882;52.256;8.874;2024-02-21T05:22:48;8.80;99.90
3734;HTU21D;1882;52.256;8.874;2024-02-21T05:25:15;8.80;99.90
3734;HTU21D;1882;52.256;8.874;2024-02-21T05:27:42;8.80;99.90
3734;HTU21D;1882;52.256;8.874;2024-02-21T05:30:09;8.80;99.90
3734;HTU21D;1882;52.256;8.874;2024-02-21T05:32:36;8.80;99.90
3734;HTU21D;1882;52.256;8.874;2024-02-21T05:35:04;8.80;99.90
3734;HTU21D;1882;52.256;8.874;2024-02-21T05:37:31;8.80;99.90
3734;HTU21D;1882;52.256;8.874;2024-02-21T05:39:57;8.70;99.90
3734;HTU21D;1882;52.256;8.874;2024-02-21T05:42:24;8.80;99.90
3734;HTU21D;1882;52.256;8.874;2024-02-21T05:44:51;8.80;99.90
3734;HTU21D;1882;52.256;8.874;2024-02-21T05:47:18;8.80;99.90
3734;HTU21D;1882;52.256;8.874;2024-02-21T05:49:47;8.80;99.90
3734;HTU21D;1882;52.256;8.874;2024-02-21T05:52:15;8.70;99.90
3734;HTU21D;1882;52.256;8.874;2024-02-21T05:54:42;8.70;99.90
3734;HTU21D;1882;52.256;8.874;2024-02-21T05:57:09;8.70;99.90
3734;HTU21D;1882;52.256;8.874;2024-02-21T05:59:38;8.70;99.90
3734;HTU21D;1882;52.256;8.874;2024-02-21T06:02:07;8.70;99.90
3734;HTU21D;1882;52.256;8.874;2024-02-21T06:04:34;8.70;99.90
3734;HTU21D;1882;52.256;8.874;2024-02-21T06:07:01;8.70;99.90
3734;HTU21D;1882;52.256;8.874;2024-02-21T06:09:28;8.60;99.90
3734;HTU21D;1882;52.256;8.874;2024-02-21T06:11:55;8.60;99.90
3734;HTU21D;1882;52.256;8.874;2024-02-21T06:14:22;8.60;99.90
3734;HTU21D;1882;52.256;8.874;2024-02-21T06:16:49;8.70;99.90
3734;HTU21D;1882;52.256;8.874;2024-02-21T06:19:16;8.70;99.90
3734;HTU21D;1882;52.256;8.874;2024-02-21T06:21:43;8.60;99.90
3734;HTU21D;1882;52.256;8.874;2024-02-21T06:24:10;8.70;99.90
3734;HTU21D;1882;52.256;8.874;2024-02-21T06:26:40;8.70;99.90
3734;HTU21D;1882;52.256;8.874;2024-02-21T06:29:07;8.70;99.90
3734;HTU21D;1882;52.256;8.874;2024-02-21T06:31:35;8.70;99.90
3734;HTU21D;1882;52.256;8.874;2024-02-21T06:34:02;8.70;99.90
3734;HTU21D;1882;52.256;8.874;2024-02-21T06:36:29;8.70;99.90
3734;HTU21D;1882;52.256;8.874;2024-02-21T06:38:56;8.70;99.90
3734;HTU21D;1882;52.256;8.874;2024-02-21T06:41:23;8.70;99.90
3734;HTU21D;1882;52.256;8.874;2024-02-21T06:43:50;8.70;99.90
3734;HTU21D;1882;52.256;8.874;2024-02-21T06:46:27;8.80;99.90
3734;HTU21D;1882;52.256;8.874;2024-02-21T06:48:56;8.70;99.90
3734;HTU21D;1882;52.256;8.874;2024-02-21T06:51:27;8.70;99.90
3734;HTU21D;1882;52.256;8.874;2024-02-21T06:53:55;8.70;99.90
3734;HTU21D;1882;52.256;8.874;2024-02-21T06:56:25;8.70;99.90
3734;HTU21D;1882;52.256;8.874;2024-02-21T06:58:56;8.70;99.90
3734;HTU21D;1882;52.256;8.874;2024-02-21T07:01:24;8.70;99.90
3734;HTU21D;1882;52.256;8.874;2024-02-21T07:03:51;8.80;99.90
3734;HTU21D;1882;52.256;8.874;2024-02-21T07:06:18;8.90;99.90
3734;HTU21D;1882;52.256;8.874;2024-02-21T07:08:45;8.80;99.90
3734;HTU21D;1882;52.256;8.874;2024-02-21T07:11:12;8.80;99.90
3734;HTU21D;1882;52.256;8.874;2024-02-21T07:13:39;8.80;99.90
3734;HTU21D;1882;52.256;8.874;2024-02-21T07:16:07;8.70;99.90
3734;HTU21D;1882;52.256;8.874;2024-02-21T07:18:34;8.70;99.90
3734;HTU21D;1882;52.256;8.874;2024-02-21T07:21:01;8.80;99.90
3734;HTU21D;1882;52.256;8.874;2024-02-21T07:23:28;8.80;99.90
3734;HTU21D;1882;52.256;8.874;2024-02-21T07:25:55;8.90;99.90
3734;HTU21D;1882;52.256;8.874;2024-02-21T07:28:22;8.90;99.90
3734;HTU21D;1882;52.256;8.874;2024-02-21T07:30:49;8.90;99.90
3734;HTU21D;1882;52.256;8.874;2024-02-21T07:33:15;8.90;99.90
3734;HTU21D;1882;52.256;8.874;2024-02-21T07:35:42;9.00;99.90
3734;HTU21D;1882;52.256;8.874;2024-02-21T07:38:11;9.00;99.90
3734;HTU21D;1882;52.256;8.874;2024-02-21T07:40:39;9.00;99.90
3734;HTU21D;1882;52.256;8.874;2024-02-21T07:43:07;9.10;99.90
3734;HTU21D;1882;52.256;8.874;2024-02-21T07:45:33;9.10;99.90
3734;HTU21D;1882;52.256;8.874;2024-02-21T07:48:00;9.10;99.90
3734;HTU21D;1882;52.256;8.874;2024-02-21T07:50:27;9.10;99.90
3734;HTU21D;1882;52.256;8.874;2024-02-21T07:52:55;9.10;99.90
3734;HTU21D;1882;52.256;8.874;2024-02-21T07:55:22;9.20;99.90
3734;HTU21D;1882;52.256;8.874;2024-02-21T07:57:49;9.20;99.90
3734;HTU21D;1882;52.256;8.874;2024-02-21T08:00:16;9.10;99.90
3734;HTU21D;1882;52.256;8.874;2024-02-21T08:02:48;9.10;99.90
3734;HTU21D;1882;52.256;8.874;2024-02-21T08:05:15;9.20;99.90
3734;HTU21D;1882;52.256;8.874;2024-02-21T08:07:42;9.20;99.90
3734;HTU21D;1882;52.256;8.874;2024-02-21T08:10:10;9.30;99.90
3734;HTU21D;1882;52.256;8.874;2024-02-21T08:12:36;9.30;99.90
3734;HTU21D;1882;52.256;8.874;2024-02-21T08:15:04;9.40;99.90
3734;HTU21D;1882;52.256;8.874;2024-02-21T08:17:31;9.50;99.90
3734;HTU21D;1882;52.256;8.874;2024-02-21T08:19:58;9.60;99.90
3734;HTU21D;1882;52.256;8.874;2024-02-21T08:22:26;9.60;99.90
3734;HTU21D;1882;52.256;8.874;2024-02-21T08:24:53;9.60;99.90
3734;HTU21D;1882;52.256;8.874;2024-02-21T08:27:20;9.70;99.90
3734;HTU21D;1882;52.256;8.874;2024-02-21T08:29:47;9.80;99.90
3734;HTU21D;1882;52.256;8.874;2024-02-21T08:32:14;9.80;99.90
3734;HTU21D;1882;52.256;8.874;2024-02-21T08:34:41;9.90;99.90
3734;HTU21D;1882;52.256;8.874;2024-02-21T08:37:08;9.90;99.90
3734;HTU21D;1882;52.256;8.874;2024-02-21T08:39:37;9.80;99.90
3734;HTU21D;1882;52.256;8.874;2024-02-21T08:42:05;9.90;99.90
3734;HTU21D;1882;52.256;8.874;2024-02-21T08:44:31;9.80;99.90
3734;HTU21D;1882;52.256;8.874;2024-02-21T08:46:59;10.00;99.90
3734;HTU21D;1882;52.256;8.874;2024-02-21T08:49:26;10.10;99.90
3734;HTU21D;1882;52.256;8.874;2024-02-21T08:52:03;10.00;99.90
3734;HTU21D;1882;52.256;8.874;2024-02-21T08:54:31;10.00;99.90
3734;HTU21D;1882;52.256;8.874;2024-02-21T08:56:59;10.00;99.90
3734;HTU21D;1882;52.256;8.874;2024-02-21T08:59:26;10.00;99.90
3734;HTU21D;1882;52.256;8.874;2024-02-21T09:01:54;10.10;99.90
3734;HTU21D;1882;52.256;8.874;2024-02-21T09:04:21;10.10;99.90
3734;HTU21D;1882;52.256;8.874;2024-02-21T09:06:48;10.20;99.90
3734;HTU21D;1882;52.256;8.874;2024-02-21T09:09:15;10.30;99.90
3734;HTU21D;1882;52.256;8.874;2024-02-21T09:11:42;10.30;99.90
3734;HTU21D;1882;52.256;8.874;2024-02-21T09:14:09;10.40;99.90
3734;HTU21D;1882;52.256;8.874;2024-02-21T09:16:36;10.40;99.90
3734;HTU21D;1882;52.256;8.874;2024-02-21T09:19:03;10.50;99.90
3734;HTU21D;1882;52.256;8.874;2024-02-21T09:21:30;10.50;98.60
3734;HTU21D;1882;52.256;8.874;2024-02-21T09:23:57;10.60;99.40
3734;HTU21D;1882;52.256;8.874;2024-02-21T09:26:26;10.60;99.20
3734;HTU21D;1882;52.256;8.874;2024-02-21T09:28:53;10.60;99.70
3734;HTU21D;1882;52.256;8.874;2024-02-21T09:31:20;10.50;99.40
3734;HTU21D;1882;52.256;8.874;2024-02-21T09:33:47;10.60;99.40
3734;HTU21D;1882;52.256;8.874;2024-02-21T09:36:14;10.70;99.60
3734;HTU21D;1882;52.256;8.874;2024-02-21T09:38:41;10.70;99.90
3734;HTU21D;1882;52.256;8.874;2024-02-21T09:41:21;10.70;98.40
3734;HTU21D;1882;52.256;8.874;2024-02-21T09:43:52;10.70;98.50
3734;HTU21D;1882;52.256;8.874;2024-02-21T09:46:52;10.80;98.70
3734;HTU21D;1882;52.256;8.874;2024-02-21T09:51:49;11.00;98.70
3734;HTU21D;1882;52.256;8.874;2024-02-21T09:54:18;11.00;97.80
3734;HTU21D;1882;52.256;8.874;2024-02-21T09:56:46;11.00;97.10
3734;HTU21D;1882;52.256;8.874;2024-02-21T09:59:15;11.10;97.80
3734;HTU21D;1882;52.256;8.874;2024-02-21T10:01:43;11.20;97.20
3734;HTU21D;1882;52.256;8.874;2024-02-21T10:04:11;11.20;96.50
3734;HTU21D;1882;52.256;8.874;2024-02-21T10:06:38;11.10;97.00
3734;HTU21D;1882;52.256;8.874;2024-02-21T10:09:06;11.20;96.60
3734;HTU21D;1882;52.256;8.874;2024-02-21T10:11:33;11.30;96.10
3734;HTU21D;1882;52.256;8.874;2024-02-21T10:14:07;11.10;95.40
3734;HTU21D;1882;52.256;8.874;2024-02-21T10:16:35;11.10;95.30
3734;HTU21D;1882;52.256;8.874;2024-02-21T10:19:04;11.10;95.70
3734;HTU21D;1882;52.256;8.874;2024-02-21T10:21:32;11.20;95.90
3734;HTU21D;1882;52.256;8.874;2024-02-21T10:23:59;11.10;95.70
3734;HTU21D;1882;52.256;8.874;2024-02-21T10:26:26;11.20;95.80
3734;HTU21D;1882;52.256;8.874;2024-02-21T10:28:53;11.20;95.20
3734;HTU21D;1882;52.256;8.874;2024-02-21T10:31:27;11.40;94.70
3734;HTU21D;1882;52.256;8.874;2024-02-21T10:33:58;11.30;93.90
3734;HTU21D;1882;52.256;8.874;2024-02-21T10:36:26;11.30;93.60
3734;HTU21D;1882;52.256;8.874;2024-02-21T10:38:53;11.30;93.70
3734;HTU21D;1882;52.256;8.874;2024-02-21T10:41:22;11.30;93.70
3734;HTU21D;1882;52.256;8.874;2024-02-21T10:43:51;11.30;93.60
3734;HTU21D;1882;52.256;8.874;2024-02-21T10:46:23;11.30;91.70
3734;HTU21D;1882;52.256;8.874;2024-02-21T10:49:07;11.30;83.70
3734;HTU21D;1882;52.256;8.874;2024-02-21T10:51:37;11.20;65.20
3734;HTU21D;1882;52.256;8.874;2024-02-21T10:56:50;11.30;63.60
3734;HTU21D;1882;52.256;8.874;2024-02-21T10:59:17;11.40;63.60
3734;HTU21D;1882;52.256;8.874;2024-02-21T11:01:44;11.40;64.10
3734;HTU21D;1882;52.256;8.874;2024-02-21T11:04:12;11.50;62.70
3734;HTU21D;1882;52.256;8.874;2024-02-21T11:06:40;11.50;63.70
3734;HTU21D;1882;52.256;8.874;2024-02-21T11:09:09;11.50;60.30
3734;HTU21D;1882;52.256;8.874;2024-02-21T11:14:20;11.50;62.20
3734;HTU21D;1882;52.256;8.874;2024-02-21T11:16:47;11.50;59.60
3734;HTU21D;1882;52.256;8.874;2024-02-21T11:19:28;11.60;60.20
3734;HTU21D;1882;52.256;8.874;2024-02-21T11:21:56;11.60;60.40
3734;HTU21D;1882;52.256;8.874;2024-02-21T11:24:32;11.70;57.40
3734;HTU21D;1882;52.256;8.874;2024-02-21T11:29:54;11.60;58.10
3734;HTU21D;1882;52.256;8.874;2024-02-21T11:32:21;11.60;59.40
3734;HTU21D;1882;52.256;8.874;2024-02-21T11:34:58;11.70;59.60
3734;HTU21D;1882;52.256;8.874;2024-02-21T11:37:33;11.90;58.10
3734;HTU21D;1882;52.256;8.874;2024-02-21T11:40:01;11.80;56.80
3734;HTU21D;1882;52.256;8.874;2024-02-21T11:42:30;11.80;56.80
3734;HTU21D;1882;52.256;8.874;2024-02-21T11:45:00;11.80;56.30
3734;HTU21D;1882;52.256;8.874;2024-02-21T11:47:31;11.60;59.10
3734;HTU21D;1882;52.256;8.874;2024-02-21T11:49:58;11.60;58.40
3734;HTU21D;1882;52.256;8.874;2024-02-21T11:52:26;11.60;57.20
3734;HTU21D;1882;52.256;8.874;2024-02-21T11:54:54;11.50;57.60
3734;HTU21D;1882;52.256;8.874;2024-02-21T11:57:23;11.60;58.30
3734;HTU21D;1882;52.256;8.874;2024-02-21T11:59:53;11.50;57.80
3734;HTU21D;1882;52.256;8.874;2024-02-21T12:02:26;11.50;57.90
3734;HTU21D;1882;52.256;8.874;2024-02-21T12:04:53;11.50;57.80
3734;HTU21D;1882;52.256;8.874;2024-02-21T12:07:21;11.50;59.50
3734;HTU21D;1882;52.256;8.874;2024-02-21T12:09:51;11.50;58.60
3734;HTU21D;1882;52.256;8.874;2024-02-21T12:12:20;11.50;59.10
3734;HTU21D;1882;52.256;8.874;2024-02-21T12:14:56;11.40;60.30
3734;HTU21D;1882;52.256;8.874;2024-02-21T12:17:26;11.50;60.40
3734;HTU21D;1882;52.256;8.874;2024-02-21T12:19:54;11.60;59.50
3734;HTU21D;1882;52.256;8.874;2024-02-21T12:22:21;11.70;58.90
3734;HTU21D;1882;52.256;8.874;2024-02-21T12:24:48;11.70;57.80
3734;HTU21D;1882;52.256;8.874;2024-02-21T12:27:15;11.70;58.90
3734;HTU21D;1882;52.256;8.874;2024-02-21T12:29:42;11.80;59.40
3734;HTU21D;1882;52.256;8.874;2024-02-21T12:32:09;11.60;58.50
3734;HTU21D;1882;52.256;8.874;2024-02-21T12:34:36;11.70;58.00
3734;HTU21D;1882;52.256;8.874;2024-02-21T12:37:18;11.70;58.80
3734;HTU21D;1882;52.256;8.874;2024-02-21T12:39:47;11.80;59.10
3734;HTU21D;1882;52.256;8.874;2024-02-21T12:42:14;11.70;57.40
3734;HTU21D;1882;52.256;8.874;2024-02-21T12:44:41;11.70;58.60
3734;HTU21D;1882;52.256;8.874;2024-02-21T12:47:09;11.70;58.20
3734;HTU21D;1882;52.256;8.874;2024-02-21T12:49:36;11.70;60.30
3734;HTU21D;1882;52.256;8.874;2024-02-21T12:52:05;11.90;59.80
3734;HTU21D;1882;52.256;8.874;2024-02-21T12:54:32;11.80;60.70
3734;HTU21D;1882;52.256;8.874;2024-02-21T12:56:58;11.80;59.40
3734;HTU21D;1882;52.256;8.874;2024-02-21T12:59:30;11.70;60.60
3734;HTU21D;1882;52.256;8.874;2024-02-21T13:01:57;11.80;59.10
3734;HTU21D;1882;52.256;8.874;2024-02-21T13:04:24;11.80;60.70
3734;HTU21D;1882;52.256;8.874;2024-02-21T13:06:53;11.80;60.40
3734;HTU21D;1882;52.256;8.874;2024-02-21T13:09:22;11.90;59.10
3734;HTU21D;1882;52.256;8.874;2024-02-21T13:11:49;12.00;58.70
3734;HTU21D;1882;52.256;8.874;2024-02-21T13:14:18;11.80;57.70
3734;HTU21D;1882;52.256;8.874;2024-02-21T13:16:45;11.80;58.00
3734;HTU21D;1882;52.256;8.874;2024-02-21T13:19:12;11.60;58.60
3734;HTU21D;1882;52.256;8.874;2024-02-21T13:21:41;11.50;60.00
3734;HTU21D;1882;52.256;8.874;2024-02-21T13:24:09;11.50;60.10
3734;HTU21D;1882;52.256;8.874;2024-02-21T13:26:36;11.40;59.40
3734;HTU21D;1882;52.256;8.874;2024-02-21T13:29:03;11.30;59.30
3734;HTU21D;1882;52.256;8.874;2024-02-21T13:31:30;11.20;59.80
3734;HTU21D;1882;52.256;8.874;2024-02-21T13:33:57;11.20;60.60
3734;HTU21D;1882;52.256;8.874;2024-02-21T13:36:24;11.20;59.90
3734;HTU21D;1882;52.256;8.874;2024-02-21T13:38:51;11.20;61.10
3734;HTU21D;1882;52.256;8.874;2024-02-21T13:41:19;11.10;62.40
3734;HTU21D;1882;52.256;8.874;2024-02-21T13:43:48;11.10;60.90
3734;HTU21D;1882;52.256;8.874;2024-02-21T13:46:15;11.10;61.40
3734;HTU21D;1882;52.256;8.874;2024-02-21T13:48:42;11.20;60.70
3734;HTU21D;1882;52.256;8.874;2024-02-21T13:51:09;11.20;60.70
3734;HTU21D;1882;52.256;8.874;2024-02-21T13:53:38;11.20;59.30
3734;HTU21D;1882;52.256;8.874;2024-02-21T13:56:05;11.20;60.00
3734;HTU21D;1882;52.256;8.874;2024-02-21T13:58:32;11.10;60.60
3734;HTU21D;1882;52.256;8.874;2024-02-21T14:00:59;11.10;62.70
3734;HTU21D;1882;52.256;8.874;2024-02-21T14:03:27;11.00;60.80
3734;HTU21D;1882;52.256;8.874;2024-02-21T14:05:54;11.00;62.40
3734;HTU21D;1882;52.256;8.874;2024-02-21T14:08:21;10.80;61.90
3734;HTU21D;1882;52.256;8.874;2024-02-21T14:10:51;10.80;62.70
3734;HTU21D;1882;52.256;8.874;2024-02-21T14:13:18;10.70;62.90
3734;HTU21D;1882;52.256;8.874;2024-02-21T14:15:45;10.80;62.50
3734;HTU21D;1882;52.256;8.874;2024-02-21T14:18:16;10.80;62.30
3734;HTU21D;1882;52.256;8.874;2024-02-21T14:20:43;10.70;63.20
3734;HTU21D;1882;52.256;8.874;2024-02-21T14:23:10;10.70;63.10
3734;HTU21D;1882;52.256;8.874;2024-02-21T14:25:37;10.70;63.80
3734;HTU21D;1882;52.256;8.874;2024-02-21T14:28:07;10.70;62.60
3734;HTU21D;1882;52.256;8.874;2024-02-21T14:30:35;10.80;63.10
3734;HTU21D;1882;52.256;8.874;2024-02-21T14:33:03;10.90;63.30
3734;HTU21D;1882;52.256;8.874;2024-02-21T14:35:34;10.70;61.70
3734;HTU21D;1882;52.256;8.874;2024-02-21T14:38:01;10.70;62.90
3734;HTU21D;1882;52.256;8.874;2024-02-21T14:40:31;10.70;63.40
3734;HTU21D;1882;52.256;8.874;2024-02-21T14:43:03;10.70;62.90
3734;HTU21D;1882;52.256;8.874;2024-02-21T14:45:30;10.70;62.50
3734;HTU21D;1882;52.256;8.874;2024-02-21T14:47:57;10.70;62.70
3734;HTU21D;1882;52.256;8.874;2024-02-21T14:50:24;10.80;62.90
3734;HTU21D;1882;52.256;8.874;2024-02-21T14:52:51;10.70;62.30
3734;HTU21D;1882;52.256;8.874;2024-02-21T14:55:19;10.70;62.00
3734;HTU21D;1882;52.256;8.874;2024-02-21T14:57:46;10.80;62.60
3734;HTU21D;1882;52.256;8.874;2024-02-21T15:00:13;10.80;62.00
3734;HTU21D;1882;52.256;8.874;2024-02-21T15:02:41;10.90;62.90
3734;HTU21D;1882;52.256;8.874;2024-02-21T15:05:08;11.00;61.80
3734;HTU21D;1882;52.256;8.874;2024-02-21T15:07:35;11.10;62.00
3734;HTU21D;1882;52.256;8.874;2024-02-21T15:10:02;11.10;61.20
3734;HTU21D;1882;52.256;8.874;2024-02-21T15:12:29;11.10;60.00
3734;HTU21D;1882;52.256;8.874;2024-02-21T15:14:58;11.10;59.90
3734;HTU21D;1882;52.256;8.874;2024-02-21T15:17:26;11.10;59.90
3734;HTU21D;1882;52.256;8.874;2024-02-21T15:19:53;11.10;58.80
3734;HTU21D;1882;52.256;8.874;2024-02-21T15:22:21;11.10;57.80
3734;HTU21D;1882;52.256;8.874;2024-02-21T15:24:50;11.00;58.90
3734;HTU21D;1882;52.256;8.874;2024-02-21T15:27:18;11.00;59.50
3734;HTU21D;1882;52.256;8.874;2024-02-21T15:29:44;10.90;58.90
3734;HTU21D;1882;52.256;8.874;2024-02-21T15:32:11;10.90;58.90
3734;HTU21D;1882;52.256;8.874;2024-02-21T15:34:38;10.90;59.50
3734;HTU21D;1882;52.256;8.874;2024-02-21T15:37:06;10.90;59.00
3734;HTU21D;1882;52.256;8.874;2024-02-21T15:39:33;10.90;59.50
3734;HTU21D;1882;52.256;8.874;2024-02-21T15:42:00;10.90;59.20
3734;HTU21D;1882;52.256;8.874;2024-02-21T15:44:27;10.90;59.60
3734;HTU21D;1882;52.256;8.874;2024-02-21T15:46:54;10.80;59.50
3734;HTU21D;1882;52.256;8.874;2024-02-21T15:49:21;10.80;59.70
3734;HTU21D;1882;52.256;8.874;2024-02-21T15:51:48;10.80;60.30
3734;HTU21D;1882;52.256;8.874;2024-02-21T15:54:16;10.80;60.70
3734;HTU21D;1882;52.256;8.874;2024-02-21T15:56:50;10.70;61.10
3734;HTU21D;1882;52.256;8.874;2024-02-21T15:59:18;10.70;62.10
3734;HTU21D;1882;52.256;8.874;2024-02-21T16:01:45;10.80;63.20
3734;HTU21D;1882;52.256;8.874;2024-02-21T16:04:15;10.60;62.90
3734;HTU21D;1882;52.256;8.874;2024-02-21T16:06:42;10.60;63.00
3734;HTU21D;1882;52.256;8.874;2024-02-21T16:09:11;10.50;63.00
3734;HTU21D;1882;52.256;8.874;2024-02-21T16:11:38;10.50;63.60
3734;HTU21D;1882;52.256;8.874;2024-02-21T16:14:05;10.50;62.70